Time;durP1;ratioP1;P1;durP2;ratioP2;P2;SDS_P1;SDS_P2;PMS_P1;PMS_P2;Temp;Humidity;BMP_temperature;BMP_pressure;BME280_temperature;BME280_humidity;BME280_pressure;Samples;Min_cycle;Max_cycle;Signal;HPM_P1;HPM_P2
2022/06/12 00:01:55;;;;;;;7.53;3.43;;;17.00;99.90;;;;;;4997700;28;20473;-76
2022/06/12 00:04:42;;;;;;;7.93;4.70;;;16.80;99.90;;;;;;5005515;28;20462;-73
2022/06/12 00:07:29;;;;;;;7.93;4.10;;;16.70;99.90;;;;;;4992624;28;20489;-78
2022/06/12 00:10:15;;;;;;;5.43;4.10;;;16.70;99.90;;;;;;4993619;28;20473;-78
2022/06/12 00:13:01;;;;;;;6.50;3.80;;;16.80;99.90;;;;;;5002989;28;20557;-76
2022/06/12 00:15:47;;;;;;;8.47;4.57;;;16.90;99.90;;;;;;4988190;28;20606;-77
2022/06/12 00:18:33;;;;;;;5.50;4.57;;;16.70;99.90;;;;;;4991475;28;20486;-76
2022/06/12 00:21:20;;;;;;;8.10;3.73;;;16.70;99.90;;;;;;4990591;28;20470;-76
2022/06/12 00:24:10;;;;;;;7.93;3.97;;;16.70;99.90;;;;;;4993000;28;20590;-76
2022/06/12 00:26:57;;;;;;;4.60;4.00;;;16.60;99.90;;;;;;4987582;28;21204;-79
2022/06/12 00:30:13;;;;;;;6.17;4.30;;;16.70;99.90;;;;;;4991130;28;20441;-75
2022/06/12 00:32:59;;;;;;;5.20;4.50;;;16.70;99.90;;;;;;4991208;28;20485;-77
2022/06/12 00:35:45;;;;;;;8.37;4.57;;;16.70;99.90;;;;;;4993878;28;20442;-78
2022/06/12 00:38:30;;;;;;;10.00;3.90;;;16.60;99.90;;;;;;4990375;28;20450;-76
2022/06/12 00:41:17;;;;;;;7.30;4.20;;;16.40;99.90;;;;;;4991314;28;20465;-76
2022/06/12 00:44:41;;;;;;;5.97;4.90;;;16.50;99.90;;;;;;4990670;28;20506;-77
2022/06/12 00:48:04;;;;;;;4.90;4.20;;;16.60;99.90;;;;;;4992926;28;20861;-78
2022/06/12 00:50:56;;;;;;;6.60;4.83;;;16.70;99.90;;;;;;4994470;28;20450;-78
2022/06/12 00:53:47;;;;;;;9.20;4.87;;;16.80;99.90;;;;;;4994063;28;20478;-77
2022/06/12 00:56:38;;;;;;;5.43;4.07;;;16.80;99.90;;;;;;4994853;28;20458;-77
2022/06/12 00:59:35;;;;;;;6.47;4.13;;;16.80;99.90;;;;;;4991843;28;20450;-78
2022/06/12 01:02:28;;;;;;;7.70;4.20;;;16.80;99.90;;;;;;4991691;28;20564;-77
2022/06/12 01:08:24;;;;;;;4.87;3.83;;;16.50;99.90;;;;;;4995274;28;20457;-74
2022/06/12 01:11:15;;;;;;;7.17;4.33;;;16.50;99.90;;;;;;4994974;28;20550;-78
2022/06/12 01:14:06;;;;;;;9.13;4.60;;;16.30;99.90;;;;;;5004481;28;20574;-79
2022/06/12 01:16:53;;;;;;;9.97;4.83;;;16.20;99.90;;;;;;4988619;28;20457;-75
2022/06/12 01:19:42;;;;;;;7.30;4.63;;;16.00;99.90;;;;;;4988045;28;20438;-78
2022/06/12 01:23:11;;;;;;;7.63;4.57;;;16.10;99.90;;;;;;4995725;28;20962;-75
2022/06/12 01:26:25;;;;;;;6.70;4.63;;;16.10;99.90;;;;;;4967425;28;20574;-77
2022/06/12 01:29:22;;;;;;;9.27;4.87;;;16.20;99.90;;;;;;4987003;28;20466;-76
2022/06/12 01:32:12;;;;;;;10.30;4.23;;;16.30;99.90;;;;;;4990082;28;20449;-77
2022/06/12 01:35:07;;;;;;;6.47;4.80;;;16.20;99.90;;;;;;4990879;28;20537;-77
2022/06/12 01:38:00;;;;;;;8.17;4.67;;;16.10;99.90;;;;;;4989166;28;20986;-76
2022/06/12 01:40:54;;;;;;;6.90;5.60;;;16.10;99.90;;;;;;4994033;28;20512;-78
2022/06/12 01:43:49;;;;;;;4.97;4.47;;;16.00;99.90;;;;;;4993181;28;20445;-74
2022/06/12 01:46:43;;;;;;;6.60;5.20;;;16.00;99.90;;;;;;4992344;28;21069;-78
2022/06/12 01:49:36;;;;;;;7.50;5.47;;;16.00;99.90;;;;;;4990547;28;20536;-78
2022/06/12 01:52:29;;;;;;;10.57;5.30;;;16.20;99.90;;;;;;4997079;28;20848;-78
2022/06/12 01:55:20;;;;;;;10.73;5.63;;;16.30;99.90;;;;;;5002374;28;20565;-75
2022/06/12 01:58:10;;;;;;;6.37;5.30;;;16.20;99.90;;;;;;4990953;28;20449;-78
2022/06/12 02:01:02;;;;;;;11.13;5.43;;;16.20;99.90;;;;;;4994730;28;20457;-77
2022/06/12 02:03:58;;;;;;;9.60;5.00;;;16.00;99.90;;;;;;4996836;28;20521;-78
2022/06/12 02:06:51;;;;;;;6.13;4.77;;;15.90;99.90;;;;;;4995306;28;20860;-79
2022/06/12 02:09:40;;;;;;;6.57;5.87;;;15.90;99.90;;;;;;4994584;28;20445;-77
2022/06/12 02:15:38;;;;;;;5.23;4.40;;;15.80;99.90;;;;;;4994107;28;20434;-75
2022/06/12 02:18:30;;;;;;;11.27;5.20;;;15.70;99.90;;;;;;4988557;28;20425;-77
2022/06/12 02:21:22;;;;;;;9.20;5.13;;;15.60;99.90;;;;;;5001124;28;20474;-76
2022/06/12 02:24:13;;;;;;;7.27;5.43;;;15.60;99.90;;;;;;4993845;28;20889;-75
2022/06/12 02:27:03;;;;;;;5.93;5.00;;;15.60;99.90;;;;;;4989449;28;20455;-76
2022/06/12 02:29:54;;;;;;;8.23;5.33;;;15.50;99.90;;;;;;4996251;28;20509;-77
2022/06/12 02:32:44;;;;;;;8.40;6.30;;;15.60;99.90;;;;;;4995870;28;20481;-75
2022/06/12 02:35:33;;;;;;;6.37;5.70;;;15.60;99.90;;;;;;4996997;28;20476;-77
2022/06/12 02:38:26;;;;;;;7.97;6.40;;;15.80;99.90;;;;;;4989317;28;20450;-78
2022/06/12 02:41:18;;;;;;;9.30;6.57;;;15.90;99.90;;;;;;4993598;28;20466;-77
2022/06/12 02:44:11;;;;;;;9.33;5.63;;;16.00;99.90;;;;;;4992731;28;20758;-76
2022/06/12 02:47:02;;;;;;;8.33;5.03;;;16.00;99.90;;;;;;4995137;28;20462;-76
2022/06/12 02:49:50;;;;;;;7.80;5.87;;;16.00;99.90;;;;;;4995517;28;21006;-76
2022/06/12 02:52:43;;;;;;;9.97;5.20;;;16.00;99.90;;;;;;4995248;28;20509;-78
2022/06/12 02:55:38;;;;;;;7.33;4.80;;;16.10;99.90;;;;;;4994112;28;21039;-77
2022/06/12 02:58:32;;;;;;;7.73;5.87;;;16.00;99.90;;;;;;4990999;28;20967;-76
2022/06/12 03:01:23;;;;;;;7.10;5.33;;;16.00;99.90;;;;;;4991885;28;20473;-77
2022/06/12 03:04:19;;;;;;;10.70;6.03;;;15.80;99.90;;;;;;4991830;28;20750;-76
2022/06/12 03:07:05;;;;;;;6.73;5.47;;;15.70;99.90;;;;;;4989687;28;20927;-76
2022/06/12 03:09:51;;;;;;;9.97;6.50;;;15.80;99.90;;;;;;4995889;28;20442;-77
2022/06/12 03:12:38;;;;;;;8.73;6.17;;;15.90;99.90;;;;;;4995220;28;20987;-77
2022/06/12 03:15:34;;;;;;;6.23;5.60;;;16.00;99.90;;;;;;4994347;28;20442;-77
2022/06/12 03:18:25;;;;;;;6.70;5.73;;;16.00;99.90;;;;;;4990925;28;20454;-77
2022/06/12 03:21:22;;;;;;;11.00;6.70;;;16.00;99.90;;;;;;4994421;28;20478;-78
2022/06/12 03:24:44;;;;;;;6.67;5.67;;;16.10;99.90;;;;;;4994575;28;20428;-80
2022/06/12 03:27:49;;;;;;;11.30;8.30;;;16.10;99.90;;;;;;4984127;28;20469;-80
2022/06/12 03:30:40;;;;;;;7.77;5.67;;;16.10;99.90;;;;;;4996251;28;20564;-80
2022/06/12 03:33:35;;;;;;;6.70;6.00;;;16.10;99.90;;;;;;4993979;28;20481;-77
2022/06/12 03:36:27;;;;;;;9.13;5.80;;;16.00;99.90;;;;;;4992966;28;20458;-76
2022/06/12 03:39:17;;;;;;;8.23;6.43;;;16.00;99.90;;;;;;4993911;28;20946;-77
2022/06/12 03:42:11;;;;;;;8.43;5.60;;;15.90;99.90;;;;;;4991174;28;20518;-80
2022/06/12 03:45:02;;;;;;;8.50;5.80;;;15.90;99.90;;;;;;4993043;28;20450;-78
2022/06/12 03:47:53;;;;;;;11.97;5.70;;;15.90;99.90;;;;;;4993803;28;20475;-83
2022/06/12 03:50:44;;;;;;;9.47;6.37;;;15.90;99.90;;;;;;4994616;28;20438;-79
2022/06/12 03:53:38;;;;;;;7.43;5.37;;;15.80;99.90;;;;;;4994183;28;21208;-81
2022/06/12 03:59:55;;;;;;;8.73;6.20;;;15.80;99.90;;;;;;4956386;29;20449;-77
2022/06/12 04:02:44;;;;;;;10.77;6.07;;;15.80;99.90;;;;;;4953699;28;20616;-79
2022/06/12 04:05:36;;;;;;;6.83;6.13;;;15.80;99.90;;;;;;4989168;28;20550;-80
2022/06/12 04:08:25;;;;;;;11.00;6.60;;;15.80;99.90;;;;;;4990753;28;20442;-78
2022/06/12 04:11:13;;;;;;;9.37;6.27;;;15.80;99.90;;;;;;4992720;28;20518;-77
2022/06/12 04:14:01;;;;;;;8.10;6.13;;;15.90;99.90;;;;;;4999984;28;20470;-76
2022/06/12 04:16:49;;;;;;;8.30;6.10;;;15.90;99.90;;;;;;4994943;28;20813;-78
2022/06/12 04:23:00;;;;;;;9.40;5.30;;;16.00;99.90;;;;;;4994579;28;20477;-78
2022/06/12 04:25:52;;;;;;;7.60;5.33;;;15.90;99.90;;;;;;4999033;28;20535;-77
2022/06/12 04:28:41;;;;;;;9.03;6.73;;;16.00;99.90;;;;;;4994370;28;20533;-77
2022/06/12 04:31:29;;;;;;;7.43;6.27;;;16.10;99.90;;;;;;4991260;28;20466;-78
2022/06/12 04:34:18;;;;;;;8.40;6.10;;;16.00;99.90;;;;;;4990720;28;21357;-78
2022/06/12 04:37:13;;;;;;;11.80;6.10;;;16.10;99.90;;;;;;4990441;28;20504;-78
2022/06/12 04:40:01;;;;;;;8.97;6.13;;;16.20;99.90;;;;;;4993305;28;20761;-79
2022/06/12 04:42:46;;;;;;;6.50;5.90;;;16.30;99.90;;;;;;4994003;28;21010;-80
2022/06/12 04:45:33;;;;;;;8.47;6.80;;;16.30;99.90;;;;;;4991889;28;20548;-78
2022/06/12 04:48:23;;;;;;;8.63;5.53;;;16.40;99.90;;;;;;4991872;28;20462;-78
2022/06/12 04:51:11;;;;;;;9.20;5.93;;;16.50;99.90;;;;;;4991698;28;20494;-79
2022/06/12 04:53:59;;;;;;;5.80;5.20;;;16.60;99.90;;;;;;4992511;28;20481;-78
2022/06/12 04:56:44;;;;;;;7.43;5.40;;;16.70;99.90;;;;;;4991933;28;20544;-78
2022/06/12 04:59:31;;;;;;;8.70;5.27;;;16.70;99.90;;;;;;4992193;28;20453;-78
2022/06/12 05:02:16;;;;;;;9.33;6.10;;;16.70;99.90;;;;;;4994813;28;20470;-78
2022/06/12 05:05:02;;;;;;;7.30;5.60;;;16.80;99.90;;;;;;4989302;28;20473;-76
2022/06/12 05:07:48;;;;;;;9.53;6.07;;;16.90;99.90;;;;;;4987861;28;20453;-79
2022/06/12 05:10:35;;;;;;;10.07;5.40;;;17.00;99.90;;;;;;4992954;28;20463;-76
2022/06/12 05:13:21;;;;;;;8.23;5.27;;;17.00;99.90;;;;;;4991529;28;21302;-77
2022/06/12 05:16:08;;;;;;;7.70;4.90;;;17.10;99.90;;;;;;4988898;28;20454;-78
2022/06/12 05:18:54;;;;;;;8.83;5.13;;;17.20;99.90;;;;;;4991834;28;20445;-78
2022/06/12 05:21:40;;;;;;;8.50;5.63;;;17.20;99.90;;;;;;4993154;28;20509;-77
2022/06/12 05:24:26;;;;;;;13.27;5.73;;;17.30;99.90;;;;;;4991907;28;20556;-77
2022/06/12 05:27:19;;;;;;;12.83;6.20;;;17.40;99.90;;;;;;4997208;28;20518;-77
2022/06/12 05:30:06;;;;;;;10.30;5.93;;;17.40;99.90;;;;;;4996509;28;20451;-78
2022/06/12 05:32:55;;;;;;;8.00;6.00;;;17.50;99.90;;;;;;5000426;28;20488;-78
2022/06/12 05:35:42;;;;;;;9.17;5.13;;;17.60;99.90;;;;;;4993242;28;20445;-78
2022/06/12 05:38:27;;;;;;;7.07;5.60;;;17.60;99.90;;;;;;4997228;28;20453;-78
2022/06/12 05:41:14;;;;;;;10.30;5.73;;;17.60;99.90;;;;;;4997415;28;20465;-77
2022/06/12 05:44:01;;;;;;;8.50;5.63;;;17.70;99.90;;;;;;4995558;28;20420;-77
2022/06/12 05:46:48;;;;;;;7.03;5.33;;;17.70;99.90;;;;;;4995059;28;20804;-77
2022/06/12 05:49:34;;;;;;;9.17;5.73;;;17.80;99.90;;;;;;4997368;28;20458;-77
2022/06/12 05:52:19;;;;;;;7.53;5.80;;;17.90;99.90;;;;;;4994980;28;20532;-78
2022/06/12 05:55:06;;;;;;;8.70;5.63;;;18.00;99.90;;;;;;4992638;28;20475;-78
2022/06/12 05:57:51;;;;;;;6.80;5.50;;;18.20;99.90;;;;;;4998545;28;20511;-78
2022/06/12 06:00:39;;;;;;;12.33;6.63;;;18.30;99.90;;;;;;4996465;28;20457;-77
2022/06/12 06:03:25;;;;;;;8.03;4.70;;;18.40;99.90;;;;;;4994528;28;20470;-76
2022/06/12 06:06:15;;;;;;;7.17;5.33;;;18.50;99.90;;;;;;4991264;28;20424;-77
2022/06/12 06:09:01;;;;;;;9.87;5.60;;;18.70;99.90;;;;;;4992169;28;20462;-77
2022/06/12 06:11:47;;;;;;;10.80;5.20;;;18.90;99.90;;;;;;4992773;28;20549;-76
2022/06/12 06:14:33;;;;;;;6.93;4.63;;;19.00;99.90;;;;;;4989445;28;20452;-76
2022/06/12 06:17:20;;;;;;;5.20;4.60;;;19.20;99.90;;;;;;4991895;28;20458;-76
2022/06/12 06:20:08;;;;;;;8.37;5.37;;;19.30;99.90;;;;;;4991511;28;20464;-77
2022/06/12 06:22:55;;;;;;;7.40;5.00;;;19.50;99.90;;;;;;4994109;28;20474;-77
2022/06/12 06:25:42;;;;;;;14.93;4.80;;;19.60;99.90;;;;;;4992356;28;21063;-78
2022/06/12 06:28:28;;;;;;;10.47;4.60;;;19.70;99.90;;;;;;4995872;28;20864;-77
2022/06/12 06:31:14;;;;;;;14.00;4.87;;;19.80;99.90;;;;;;4991296;28;20474;-77
2022/06/12 06:34:01;;;;;;;4.63;4.10;;;19.90;99.90;;;;;;4994039;28;20558;-76
2022/06/12 06:36:47;;;;;;;7.60;4.23;;;20.00;99.90;;;;;;4995617;28;20441;-77
2022/06/12 06:39:33;;;;;;;5.47;3.90;;;20.20;99.90;;;;;;4995794;28;20451;-77
2022/06/12 06:42:19;;;;;;;7.73;5.00;;;20.10;99.90;;;;;;4995894;28;20474;-78
2022/06/12 06:48:10;;;;;;;6.00;4.30;;;20.10;99.90;;;;;;4988560;28;20450;-77
2022/06/12 06:50:58;;;;;;;6.60;4.20;;;20.10;99.90;;;;;;4986999;28;20442;-77
2022/06/12 06:53:43;;;;;;;6.33;4.50;;;20.10;99.90;;;;;;4990024;28;20478;-76
2022/06/12 06:56:29;;;;;;;8.53;6.00;;;20.30;99.90;;;;;;4994847;28;20986;-77
2022/06/12 06:59:15;;;;;;;8.30;4.50;;;20.40;99.90;;;;;;4995539;28;20454;-76
2022/06/12 07:02:00;;;;;;;4.60;3.93;;;20.50;99.90;;;;;;4993042;28;20589;-78
2022/06/12 07:04:47;;;;;;;6.57;4.03;;;20.70;99.90;;;;;;4994117;28;21124;-78
2022/06/12 07:07:34;;;;;;;5.80;4.47;;;20.80;99.90;;;;;;4994630;28;20462;-78
2022/06/12 07:10:23;;;;;;;10.97;4.93;;;21.00;99.90;;;;;;4995439;28;20450;-78
2022/06/12 07:13:10;;;;;;;10.70;3.87;;;21.20;99.90;;;;;;4989705;28;20513;-77
2022/06/12 07:15:56;;;;;;;4.43;4.03;;;21.40;99.90;;;;;;4995147;28;21001;-78
2022/06/12 07:18:41;;;;;;;6.60;4.10;;;21.50;99.90;;;;;;4995996;28;20458;-78
2022/06/12 07:21:27;;;;;;;6.83;4.30;;;21.70;99.90;;;;;;4995523;28;21007;-78
2022/06/12 07:24:14;;;;;;;6.90;4.47;;;21.90;99.90;;;;;;4988952;28;20450;-78
2022/06/12 07:27:00;;;;;;;8.50;4.37;;;22.00;99.90;;;;;;4991567;28;20521;-78
2022/06/12 07:29:46;;;;;;;6.10;4.53;;;22.10;99.90;;;;;;4998334;28;20462;-78
2022/06/12 07:32:32;;;;;;;6.30;3.80;;;22.10;99.90;;;;;;4995598;28;20489;-76
2022/06/12 07:35:18;;;;;;;5.40;3.93;;;22.30;99.90;;;;;;4989908;28;20513;-75
2022/06/12 07:38:05;;;;;;;7.27;3.80;;;22.50;99.90;;;;;;4990365;28;20570;-77
2022/06/12 07:40:59;;;;;;;5.83;4.40;;;22.60;99.90;;;;;;4993003;28;20445;-77
2022/06/12 07:43:46;;;;;;;6.43;4.10;;;22.70;99.90;;;;;;4989940;28;20462;-77
2022/06/12 07:46:31;;;;;;;5.40;4.03;;;22.80;99.90;;;;;;4992054;28;20829;-77
2022/06/12 07:49:18;;;;;;;5.43;3.80;;;22.90;99.90;;;;;;4991852;28;20850;-77
2022/06/12 07:52:08;;;;;;;6.40;3.07;;;22.90;99.90;;;;;;4995873;28;21002;-76
2022/06/12 07:54:55;;;;;;;6.20;3.10;;;23.00;99.90;;;;;;4983799;28;20473;-77
2022/06/12 07:57:43;;;;;;;3.70;2.33;;;23.10;98.10;;;;;;4989693;28;21035;-76
2022/06/12 08:00:28;;;;;;;5.53;3.33;;;23.10;97.90;;;;;;4990104;28;20853;-77
2022/06/12 08:03:14;;;;;;;4.87;3.40;;;23.20;97.70;;;;;;4982819;28;20450;-77
2022/06/12 08:06:01;;;;;;;11.20;3.33;;;23.10;97.60;;;;;;4984835;28;20574;-76
2022/06/12 08:08:48;;;;;;;5.30;3.40;;;23.20;98.60;;;;;;4989695;28;20582;-75
2022/06/12 08:11:34;;;;;;;3.80;3.00;;;23.30;97.10;;;;;;4989413;28;20546;-76
2022/06/12 08:14:22;;;;;;;5.47;3.63;;;23.30;96.30;;;;;;4982141;28;20666;-76
2022/06/12 08:17:08;;;;;;;5.00;3.87;;;23.30;92.00;;;;;;4988142;28;20956;-76
2022/06/12 08:23:02;;;;;;;5.93;4.10;;;23.40;96.40;;;;;;4985900;28;20998;-75
2022/06/12 08:25:48;;;;;;;5.13;3.53;;;23.50;95.20;;;;;;4989883;28;20446;-76
2022/06/12 08:28:36;;;;;;;5.37;3.47;;;23.50;94.50;;;;;;4990675;28;20446;-78
2022/06/12 08:31:27;;;;;;;7.30;3.90;;;23.60;93.80;;;;;;4986947;28;20477;-78
2022/06/12 08:34:22;;;;;;;5.23;3.47;;;23.50;93.10;;;;;;4983507;28;21264;-74
2022/06/12 08:37:13;;;;;;;6.00;3.60;;;23.70;93.30;;;;;;4989418;28;20762;-75
2022/06/12 08:39:59;;;;;;;7.97;3.70;;;23.80;95.20;;;;;;4989107;28;20455;-78
2022/06/12 08:42:57;;;;;;;4.30;3.20;;;24.00;92.10;;;;;;4988220;28;20833;-75
2022/06/12 08:45:45;;;;;;;5.70;3.60;;;24.10;91.70;;;;;;4987714;28;20814;-76
2022/06/12 08:48:39;;;;;;;6.63;3.53;;;24.10;90.20;;;;;;4988250;28;20482;-78
2022/06/12 08:51:32;;;;;;;8.90;3.33;;;24.20;89.50;;;;;;4986847;28;20481;-78
2022/06/12 08:54:22;;;;;;;10.10;5.90;;;24.30;90.30;;;;;;4986026;28;20461;-78
2022/06/12 08:57:10;;;;;;;6.23;2.93;;;24.30;84.70;;;;;;4991633;28;20651;-77
2022/06/12 09:00:01;;;;;;;5.67;2.20;;;24.10;72.90;;;;;;4987337;28;20498;-77
2022/06/12 09:02:47;;;;;;;5.47;2.70;;;24.00;69.30;;;;;;4986818;28;20490;-77
2022/06/12 09:05:41;;;;;;;5.93;2.27;;;24.10;69.90;;;;;;4988547;28;20959;-77
2022/06/12 09:08:31;;;;;;;4.13;1.87;;;24.20;66.90;;;;;;4992590;28;20430;-77
2022/06/12 09:11:21;;;;;;;10.57;2.30;;;24.30;63.70;;;;;;4991010;28;20478;-78
2022/06/12 09:14:21;;;;;;;4.87;2.73;;;24.30;65.00;;;;;;4988159;28;20455;-77
2022/06/12 09:17:15;;;;;;;3.40;2.33;;;24.40;69.20;;;;;;4994337;28;20421;-76
2022/06/12 09:20:14;;;;;;;4.47;1.90;;;24.40;66.20;;;;;;4994524;28;20430;-77
2022/06/12 09:23:14;;;;;;;13.63;2.40;;;24.40;62.40;;;;;;4985298;28;20498;-76
2022/06/12 09:26:07;;;;;;;4.33;2.23;;;24.40;58.00;;;;;;4991339;28;20490;-78
2022/06/12 09:29:04;;;;;;;5.23;2.23;;;24.50;63.10;;;;;;4994454;28;20442;-78
2022/06/12 09:31:54;;;;;;;3.63;2.20;;;24.70;63.90;;;;;;4989686;28;20553;-77
2022/06/12 09:34:49;;;;;;;4.40;2.87;;;24.80;62.70;;;;;;4985495;28;20609;-75
2022/06/12 09:41:12;;;;;;;3.37;1.90;;;24.70;61.80;;;;;;4983824;28;20450;-76
2022/06/12 09:44:10;;;;;;;7.20;2.10;;;24.70;59.50;;;;;;4988310;28;20458;-75
2022/06/12 09:47:11;;;;;;;4.90;1.83;;;24.70;60.90;;;;;;4988826;28;20446;-74
2022/06/12 09:50:05;;;;;;;4.70;2.40;;;24.80;61.40;;;;;;4986890;28;20496;-75
2022/06/12 09:53:15;;;;;;;5.50;2.27;;;24.80;56.30;;;;;;4986028;28;20528;-75
2022/06/12 09:56:08;;;;;;;3.30;1.80;;;24.80;59.90;;;;;;4982546;28;20482;-75
2022/06/12 09:59:00;;;;;;;4.83;2.23;;;24.90;60.10;;;;;;4987409;28;20446;-74
2022/06/12 10:01:50;;;;;;;3.40;2.30;;;24.90;58.60;;;;;;4991673;28;20437;-75
2022/06/12 10:04:43;;;;;;;6.33;2.87;;;25.00;61.30;;;;;;4985679;28;20585;-74
2022/06/12 10:07:34;;;;;;;5.23;3.10;;;25.10;59.90;;;;;;4988160;28;20785;-75
2022/06/12 10:10:24;;;;;;;5.27;2.57;;;25.10;58.70;;;;;;4987903;28;20509;-75
2022/06/12 10:13:15;;;;;;;5.80;2.37;;;25.30;61.80;;;;;;4987184;28;20465;-75
2022/06/12 10:16:05;;;;;;;2.90;2.00;;;25.40;59.80;;;;;;4992120;28;20573;-77
2022/06/12 10:18:55;;;;;;;6.37;2.50;;;25.50;60.80;;;;;;4991718;28;20489;-77
2022/06/12 10:21:46;;;;;;;5.10;2.50;;;25.60;62.00;;;;;;4992580;28;20473;-77
2022/06/12 10:24:32;;;;;;;5.30;2.90;;;25.80;61.80;;;;;;4991521;28;20586;-77
2022/06/12 10:27:19;;;;;;;6.90;2.33;;;26.00;60.30;;;;;;4996855;28;20883;-77
2022/06/12 10:30:08;;;;;;;6.30;4.07;;;26.00;57.80;;;;;;4982715;28;20423;-77
2022/06/12 10:32:56;;;;;;;9.23;3.07;;;26.10;59.50;;;;;;4989027;28;20462;-76
2022/06/12 10:35:48;;;;;;;11.30;2.77;;;26.20;56.70;;;;;;4992834;28;20556;-77
2022/06/12 10:38:36;;;;;;;5.13;2.30;;;26.20;57.30;;;;;;4996959;28;21054;-77
2022/06/12 10:41:25;;;;;;;7.60;2.73;;;26.30;59.70;;;;;;4993207;28;20458;-77
2022/06/12 10:44:27;;;;;;;3.80;2.60;;;26.40;59.80;;;;;;4986682;28;20968;-77
2022/06/12 10:47:23;;;;;;;6.03;3.50;;;26.60;58.90;;;;;;4987508;28;20589;-77
2022/06/12 10:50:23;;;;;;;3.00;2.40;;;26.80;55.80;;;;;;4992536;28;20478;-77
2022/06/12 10:53:16;;;;;;;5.90;2.77;;;26.80;57.10;;;;;;5020505;23;20546;-75
2022/06/12 10:56:18;;;;;;;4.00;2.50;;;26.70;53.90;;;;;;5040042;28;20466;-76
2022/06/12 10:59:29;;;;;;;5.20;2.70;;;26.60;56.00;;;;;;5034555;28;20443;-76
2022/06/12 11:02:43;;;;;;;5.90;2.50;;;26.50;55.20;;;;;;5036438;28;20507;-76
2022/06/12 11:05:56;;;;;;;4.17;2.50;;;26.60;56.00;;;;;;5019331;28;20424;-76
2022/06/12 11:09:03;;;;;;;4.93;2.40;;;26.80;53.30;;;;;;5005192;28;20448;-77
2022/06/12 11:12:05;;;;;;;3.60;2.27;;;27.10;54.60;;;;;;5014781;28;20432;-77
2022/06/12 11:15:14;;;;;;;7.23;3.23;;;27.20;52.10;;;;;;5011882;28;20567;-76
2022/06/12 11:18:16;;;;;;;5.57;2.70;;;27.30;52.50;;;;;;5031238;28;20428;-76
2022/06/12 11:21:14;;;;;;;4.60;2.53;;;27.40;52.60;;;;;;5022488;28;20429;-76
2022/06/12 11:24:12;;;;;;;4.33;2.40;;;27.50;48.70;;;;;;5015206;28;20989;-77
2022/06/12 11:27:20;;;;;;;8.33;2.43;;;27.60;50.20;;;;;;5004280;28;20480;-76
2022/06/12 11:30:13;;;;;;;5.40;2.00;;;27.60;49.30;;;;;;5015603;28;20428;-75
2022/06/12 11:33:28;;;;;;;5.67;2.80;;;27.60;44.60;;;;;;5012972;28;20472;-76
2022/06/12 11:36:22;;;;;;;4.93;2.50;;;27.50;42.30;;;;;;5012707;28;20524;-76
2022/06/12 11:39:33;;;;;;;4.10;2.27;;;27.40;45.00;;;;;;5007783;28;20454;-76
2022/06/12 11:42:37;;;;;;;6.40;1.93;;;27.40;42.90;;;;;;5008785;28;20469;-76
2022/06/12 11:45:36;;;;;;;4.43;2.13;;;27.30;42.10;;;;;;5014908;28;20537;-76
2022/06/12 11:48:53;;;;;;;5.77;2.13;;;27.20;42.00;;;;;;5013479;28;20504;-77
2022/06/12 11:51:52;;;;;;;3.30;1.97;;;27.50;41.80;;;;;;5011158;28;20453;-77
2022/06/12 11:54:57;;;;;;;4.30;2.10;;;27.80;43.90;;;;;;5011431;28;20532;-76
2022/06/12 11:57:58;;;;;;;5.87;2.10;;;28.00;40.50;;;;;;5012317;28;20660;-76
2022/06/12 12:00:53;;;;;;;7.37;2.27;;;28.10;41.80;;;;;;5006506;28;20460;-76
2022/06/12 12:04:21;;;;;;;6.37;2.50;;;28.20;40.20;;;;;;5014068;28;20591;-76
2022/06/12 12:07:19;;;;;;;6.53;2.30;;;28.30;42.00;;;;;;5010401;28;20440;-76
2022/06/12 12:10:19;;;;;;;3.40;2.30;;;28.40;40.00;;;;;;5006695;28;20596;-76
2022/06/12 12:13:09;;;;;;;5.83;2.57;;;28.40;40.00;;;;;;5005237;28;20464;-77
2022/06/12 12:15:57;;;;;;;8.00;2.10;;;28.10;40.70;;;;;;5011018;28;20825;-76
2022/06/12 12:18:47;;;;;;;6.13;2.37;;;27.80;40.80;;;;;;5016625;28;20454;-77
2022/06/12 12:21:39;;;;;;;12.80;2.40;;;27.70;40.80;;;;;;5007420;28;20537;-77
2022/06/12 12:24:29;;;;;;;5.80;2.50;;;27.80;41.10;;;;;;5013973;28;20453;-76
2022/06/12 12:27:24;;;;;;;6.87;2.17;;;27.80;40.10;;;;;;5011023;28;20573;-76
2022/06/12 12:30:18;;;;;;;5.23;2.07;;;27.80;42.00;;;;;;5012232;28;20500;-76
2022/06/12 12:33:05;;;;;;;5.50;2.70;;;27.80;40.20;;;;;;5006843;28;20464;-76
2022/06/12 12:42:03;;;;;;;4.60;3.00;;;28.30;40.00;;;;;;5010031;28;20452;-74
2022/06/12 12:44:49;;;;;;;6.07;2.30;;;28.40;39.00;;;;;;5016508;28;20990;-73
2022/06/12 12:47:35;;;;;;;5.80;2.20;;;28.50;38.60;;;;;;5015959;28;20501;-74
2022/06/12 12:50:22;;;;;;;5.50;2.60;;;28.40;38.50;;;;;;5013646;28;20544;-74
2022/06/12 12:53:08;;;;;;;3.67;2.40;;;28.10;38.70;;;;;;5009191;28;20611;-73
2022/06/12 12:56:05;;;;;;;7.33;2.60;;;28.00;40.20;;;;;;5009186;28;20463;-74
2022/06/12 12:58:56;;;;;;;6.50;2.20;;;27.80;41.10;;;;;;5019409;28;20448;-73
2022/06/12 13:01:47;;;;;;;9.00;2.70;;;27.60;39.80;;;;;;5008185;28;20592;-74
2022/06/12 13:04:35;;;;;;;9.40;2.57;;;27.60;40.60;;;;;;5015713;28;20999;-73
2022/06/12 13:07:47;;;;;;;4.90;2.27;;;27.90;40.00;;;;;;5027883;28;20463;-74
2022/06/12 13:10:48;;;;;;;4.90;2.63;;;28.10;42.90;;;;;;5012819;28;21085;-74
2022/06/12 13:13:56;;;;;;;4.10;2.17;;;27.90;37.40;;;;;;5013105;28;20464;-73
2022/06/12 13:16:56;;;;;;;5.10;2.30;;;27.80;38.50;;;;;;5013792;28;20465;-74
2022/06/12 13:20:00;;;;;;;3.53;2.30;;;27.70;39.50;;;;;;5013078;28;20448;-73
2022/06/12 13:22:57;;;;;;;4.63;2.40;;;27.80;43.20;;;;;;5011922;28;20598;-73
2022/06/12 13:25:47;;;;;;;3.10;1.97;;;27.90;39.10;;;;;;5016132;28;20465;-74
2022/06/12 13:28:35;;;;;;;3.67;2.23;;;28.40;39.40;;;;;;5011251;28;20437;-73
2022/06/12 13:31:22;;;;;;;5.03;2.37;;;28.70;39.20;;;;;;5003853;28;20467;-74
2022/06/12 13:34:08;;;;;;;4.20;2.50;;;28.70;39.20;;;;;;5012757;28;20501;-74
2022/06/12 13:36:54;;;;;;;4.30;2.30;;;28.80;36.70;;;;;;5015714;28;20526;-73
2022/06/12 13:39:48;;;;;;;6.33;2.10;;;28.90;37.50;;;;;;5013606;28;20453;-74
2022/06/12 13:42:33;;;;;;;6.47;2.60;;;29.10;35.90;;;;;;5008419;28;20484;-73
2022/06/12 13:45:23;;;;;;;3.80;1.97;;;29.20;36.50;;;;;;5014415;28;20523;-74
2022/06/12 13:48:21;;;;;;;4.20;2.10;;;29.40;35.50;;;;;;5020144;28;20580;-73
2022/06/12 13:51:19;;;;;;;4.53;2.80;;;29.50;35.40;;;;;;5010658;28;20453;-73
2022/06/12 13:54:14;;;;;;;11.93;2.30;;;29.20;36.20;;;;;;5012354;28;20542;-74
2022/06/12 13:57:06;;;;;;;5.30;2.17;;;29.00;36.30;;;;;;5020178;28;20488;-73
2022/06/12 13:59:52;;;;;;;4.87;2.20;;;28.80;36.00;;;;;;5013138;28;20579;-74
2022/06/12 14:02:42;;;;;;;5.03;2.07;;;28.30;36.10;;;;;;5019230;28;20470;-74
2022/06/12 14:05:32;;;;;;;7.63;2.40;;;27.90;37.50;;;;;;5011752;28;20441;-73
2022/06/12 14:08:18;;;;;;;5.10;2.43;;;27.80;39.40;;;;;;5009502;28;20477;-72
2022/06/12 14:11:05;;;;;;;3.53;2.20;;;27.90;41.20;;;;;;5009159;28;20453;-72
2022/06/12 14:13:51;;;;;;;4.17;2.20;;;27.90;39.50;;;;;;5009546;28;21008;-72
2022/06/12 14:16:47;;;;;;;4.67;2.40;;;28.00;40.40;;;;;;5024582;28;20480;-72
2022/06/12 14:19:33;;;;;;;4.30;2.07;;;27.90;41.20;;;;;;5011885;28;20452;-74
2022/06/12 14:22:21;;;;;;;5.60;3.17;;;27.80;43.20;;;;;;5019758;28;20560;-74
2022/06/12 14:25:20;;;;;;;4.07;2.00;;;27.50;46.10;;;;;;5016647;28;20524;-74
2022/06/12 14:28:22;;;;;;;4.90;2.47;;;27.30;46.80;;;;;;5026144;28;20519;-73
2022/06/12 14:31:20;;;;;;;7.50;2.10;;;27.30;47.80;;;;;;5011954;28;20547;-73
2022/06/12 14:34:23;;;;;;;5.30;2.27;;;27.20;42.00;;;;;;5007941;28;20993;-74
2022/06/12 14:40:16;;;;;;;9.07;2.50;;;27.10;41.20;;;;;;5083429;27;20562;-75
2022/06/12 14:43:15;;;;;;;5.93;2.60;;;26.90;46.40;;;;;;5077724;28;20469;-75
2022/06/12 14:46:02;;;;;;;4.97;2.20;;;26.90;46.40;;;;;;5079124;28;20453;-75
2022/06/12 14:48:48;;;;;;;8.23;2.57;;;26.90;54.20;;;;;;5081287;28;20442;-76
2022/06/12 14:51:34;;;;;;;4.10;1.93;;;26.90;57.30;;;;;;5078116;28;20481;-75
2022/06/12 14:54:20;;;;;;;15.27;2.27;;;26.90;60.10;;;;;;5079089;28;20516;-76
2022/06/12 14:57:12;;;;;;;4.20;2.00;;;26.80;60.00;;;;;;5080577;28;20442;-75
2022/06/12 15:00:01;;;;;;;7.23;2.23;;;26.60;60.80;;;;;;5078027;28;20478;-74
2022/06/12 15:02:47;;;;;;;4.43;2.33;;;26.60;65.20;;;;;;5078771;28;20465;-73
2022/06/12 15:05:33;;;;;;;4.43;2.07;;;26.60;66.70;;;;;;5089088;28;20458;-74
2022/06/12 15:08:18;;;;;;;3.63;1.83;;;26.70;65.90;;;;;;5085763;28;20810;-75
2022/06/12 15:11:15;;;;;;;6.50;2.13;;;26.80;64.80;;;;;;5070007;28;20442;-74
2022/06/12 15:14:02;;;;;;;6.40;2.10;;;26.80;64.40;;;;;;5088362;28;20488;-75
2022/06/12 15:16:48;;;;;;;3.60;2.13;;;27.00;56.10;;;;;;5091423;28;20441;-75
2022/06/12 15:19:33;;;;;;;3.10;1.77;;;27.20;49.50;;;;;;5075980;28;20505;-76
2022/06/12 15:22:22;;;;;;;4.33;1.50;;;27.40;46.00;;;;;;5082174;28;20445;-76
2022/06/12 15:29:45;;;;;;;5.30;2.30;;;27.40;48.00;;;;;;5075740;28;20438;-76